Date,TemperatureHighF,TemperatureAvgF,TemperatureLowF,DewpointHighF,DewpointAvgF,DewpointLowF,HumidityHigh,HumidityAvg,HumidityLow,PressureMaxIn,PressureMinIn,WindSpeedMaxMPH,WindSpeedAvgMPH,GustSpeedMaxMPH,PrecipitationSumIn
2013-3-1,45,36,30,29,25,23,78,67,51,30.06,29.95,4,2,14,0.00
2013-3-2,40,34,28,29,25,17,92,72,48,30.07,29.93,4,1,11,0.02
2013-3-3,40,29,24,17,14,12,67,54,37,30.21,30.05,6,3,15,0.00
2013-3-4,54,38,22,33,20,11,75,52,27,30.37,30.18,3,1,7,0.00
2013-3-5,49,42,33,47,36,26,96,80,60,30.19,29.60,6,1,16,0.60
2013-3-6,37,31,26,26,23,18,84,70,59,30.32,29.74,6,3,18,0.00
2013-3-7,58,40,28,34,26,22,80,60,34,30.43,30.25,7,2,19,0.01
2013-3-8,59,43,28,31,25,6,83,53,16,30.38,30.24,4,1,9,0.00
2013-3-9,60,46,35,33,27,20,67,49,30,30.41,30.24,3,1,8,0.00
2013-3-10,61,52,43,38,32,28,62,47,34,30.28,30.09,4,1,9,0.00
2013-3-11,55,50,46,51,46,37,96,88,52,30.09,29.69,3,1,8,1.05
2013-3-12,62,50,38,51,36,12,97,65,18,29.98,29.62,7,2,14,0.17
2013-3-13,47,38,31,29,23,16,83,56,34,30.29,29.98,6,2,20,0.00
2013-3-14,52,37,26,21,14,-1,64,42,13,30.49,30.28,4,2,11,0.00
2013-3-15,69,50,33,42,31,11,78,51,29,30.34,29.88,5,1,21,0.00
2013-3-16,74,62,52,46,42,39,64,49,33,29.88,29.56,4,2,11,0.00
2013-3-17,69,59,50,48,45,41,76,60,42,29.78,29.63,6,1,10,0.00
2013-3-18,53,45,41,46,42,40,96,90,76,29.88,29.76,3,1,8,0.00
2013-3-19,59,47,38,45,33,16,97,65,25,30.06,29.84,4,1,11,0.00
2013-3-20,54,43,36,29,13,4,77,31,15,30.13,29.84,5,1,12,0.00
2013-3-21,43,34,26,29,10,0,78,39,25,30.08,29.81,4,2,18,0.00
2013-3-22,46,36,27,29,18,12,63,48,34,30.22,30.08,3,0,5,0.00
2013-3-23,52,44,38,47,40,28,96,88,62,30.14,29.81,3,0,8,0.00
2013-3-24,47,44,39,45,42,37,96,94,88,29.87,29.41,6,2,11,0.00
2013-3-25,39,32,28,36,24,20,92,72,60,30.10,29.49,7,3,18,0.01
2013-3-26,39,33,28,23,20,18,76,60,45,30.41,30.07,5,2,17,0.00
2013-3-27,52,38,28,23,20,16,71,51,25,30.48,30.32,3,1,12,0.00
2013-3-28,56,41,28,24,19,8,76,47,15,30.45,30.29,5,1,14,0.00
2013-3-29,56,43,34,37,27,19,77,54,33,30.45,30.26,4,2,13,0.00
2013-3-30,62,51,40,48,39,36,92,67,40,30.28,29.95,4,1,10,0.13
2013-3-31,63,54,49,54,51,48,96,89,65,29.95,29.67,3,0,8,0.67